Time;durP1;ratioP1;P1;durP2;ratioP2;P2;SDS_P1;SDS_P2;PMS_P1;PMS_P2;Temp;Humidity;BMP_temperature;BMP_pressure;BME280_temperature;BME280_humidity;BME280_pressure;Samples;Min_cycle;Max_cycle;Signal;HPM_P1;HPM_P2
2021/10/05 00:02:05;;;;;;;5.80;3.30;;;;;;;7.96;98.68;97853.13;5022986;28;20056;-63
2021/10/05 00:04:32;;;;;;;8.35;4.25;;;;;;;8.00;99.08;97859.59;5023354;28;20049;-63
2021/10/05 00:06:59;;;;;;;6.75;4.22;;;;;;;4.90;97.67;97344.19;5023647;28;20435;-65
2021/10/05 00:09:25;;;;;;;7.18;3.92;;;;;;;7.74;98.17;97821.91;5023212;28;20467;-63
2021/10/05 00:11:52;;;;;;;6.35;3.45;;;;;;;7.44;97.99;97770.69;5023306;28;20516;-63
2021/10/05 00:14:19;;;;;;;5.80;3.17;;;;;;;8.02;98.52;97843.50;5023305;28;20061;-64
2021/10/05 00:16:47;;;;;;;7.07;3.80;;;;;;;8.08;97.67;97844.94;5023710;28;20049;-63
2021/10/05 00:19:15;;;;;;;8.57;4.22;;;;;;;8.06;97.47;97852.75;5026520;28;20061;-62
2021/10/05 00:21:42;;;;;;;7.05;3.42;;;;;;;7.97;98.88;97843.69;5025678;28;20045;-62
2021/10/05 00:24:11;;;;;;;5.68;3.10;;;;;;;8.05;98.68;97834.56;5027140;28;20052;-63
2021/10/05 00:26:39;;;;;;;5.45;2.80;;;;;;;7.12;98.65;97696.13;5025228;28;20435;-63
2021/10/05 00:29:06;;;;;;;5.57;3.10;;;;;;;8.06;98.43;97847.22;5024607;28;20136;-64
2021/10/05 00:31:32;;;;;;;5.68;3.10;;;;;;;7.97;99.11;97849.19;5026020;28;20607;-63
2021/10/05 00:34:00;;;;;;;5.70;3.45;;;;;;;7.20;98.92;97718.13;5024837;28;20867;-63
2021/10/05 00:36:26;;;;;;;9.30;3.72;;;;;;;8.01;99.67;97847.41;5025027;28;20508;-64
2021/10/05 00:38:53;;;;;;;4.90;2.60;;;;;;;8.07;99.32;97832.28;5026422;28;20072;-63
2021/10/05 00:41:20;;;;;;;4.63;3.53;;;;;;;7.94;100.00;97839.66;5026446;28;20056;-63
2021/10/05 00:43:47;;;;;;;5.85;3.30;;;;;;;8.03;100.00;97832.13;5026064;28;20508;-64
2021/10/05 00:46:15;;;;;;;5.03;2.47;;;;;;;8.05;99.69;97829.03;5024535;28;20061;-63
2021/10/05 00:48:42;;;;;;;4.47;2.92;;;;;;;7.86;98.52;97798.31;5026334;28;20137;-63
2021/10/05 00:51:08;;;;;;;5.15;2.90;;;;;;;8.00;98.35;97832.00;5026261;28;20061;-64
2021/10/05 00:53:35;;;;;;;7.20;3.88;;;;;;;8.04;96.06;97822.72;5026316;28;20060;-62
2021/10/05 00:56:03;;;;;;;5.93;3.35;;;;;;;8.02;96.44;97824.19;5024484;28;20148;-64
2021/10/05 00:58:30;;;;;;;5.18;3.50;;;;;;;7.26;96.63;97702.22;5026204;28;20049;-63
2021/10/05 01:00:56;;;;;;;4.70;3.33;;;;;;;7.87;96.56;97799.97;5025733;28;20045;-63
2021/10/05 01:03:23;;;;;;;6.13;2.95;;;;;;;7.27;96.48;97698.34;5026067;28;20053;-63
2021/10/05 01:05:50;;;;;;;4.70;3.15;;;;;;;8.01;97.58;97830.84;5025944;28;20049;-63
2021/10/05 01:08:21;;;;;;;5.50;3.08;;;;;;;7.84;97.11;97806.16;5026393;28;20355;-62
2021/10/05 01:10:48;;;;;;;5.85;2.90;;;;;;;7.44;97.04;97736.81;5024569;28;20506;-65
2021/10/05 01:13:14;;;;;;;8.32;2.97;;;;;;;7.62;96.75;97772.19;5026480;28;20049;-63
2021/10/05 01:15:41;;;;;;;6.93;3.67;;;;;;;7.86;98.53;97807.41;5025509;28;20057;-63
2021/10/05 01:18:08;;;;;;;5.05;2.97;;;;;;;7.33;99.48;97750.13;5025819;28;20061;-63
2021/10/05 01:20:50;;;;;;;4.32;2.53;;;;;;;7.88;99.71;97807.09;5025300;28;20054;-63
2021/10/05 01:23:17;;;;;;;5.18;2.92;;;;;;;7.56;99.51;97778.25;5025938;28;20057;-65
2021/10/05 01:25:44;;;;;;;6.35;3.17;;;;;;;7.71;100.00;97825.34;5024996;28;20060;-63
2021/10/05 01:28:12;;;;;;;6.85;3.75;;;;;;;7.58;100.00;97809.88;5024958;28;20053;-64
2021/10/05 01:30:38;;;;;;;6.53;3.22;;;;;;;7.66;99.70;97814.53;5025997;28;20502;-63
2021/10/05 01:33:05;;;;;;;5.85;3.10;;;;;;;7.48;98.73;97790.94;5025555;28;20045;-64
2021/10/05 01:35:32;;;;;;;5.20;2.58;;;;;;;7.57;99.37;97808.22;5025378;28;20507;-64
2021/10/05 01:37:58;;;;;;;4.97;2.90;;;;;;;7.49;99.99;97806.31;5025168;28;20061;-64
2021/10/05 01:40:25;;;;;;;3.83;2.65;;;;;;;5.07;97.83;97388.06;5023523;28;20778;-63
2021/10/05 01:42:52;;;;;;;7.50;2.67;;;;;;;7.66;97.20;97806.25;5025157;28;20059;-63
2021/10/05 01:45:19;;;;;;;4.95;2.75;;;;;;;7.66;97.35;97808.19;5025310;28;20053;-64
2021/10/05 01:47:46;;;;;;;6.00;2.72;;;;;;;7.52;97.57;97793.84;5024062;28;20049;-64
2021/10/05 01:50:12;;;;;;;5.88;2.88;;;;;;;7.69;97.61;97813.84;5024740;28;20049;-63
2021/10/05 01:52:39;;;;;;;3.47;2.42;;;;;;;7.13;98.30;97720.59;5024972;28;20059;-65
2021/10/05 01:55:07;;;;;;;5.10;2.63;;;;;;;7.74;98.48;97812.84;5024977;28;20054;-63
2021/10/05 01:57:34;;;;;;;4.45;2.83;;;;;;;7.47;99.34;97778.31;5023514;28;20057;-63
2021/10/05 02:00:01;;;;;;;5.10;3.00;;;;;;;7.47;98.93;97786.56;5023253;28;20063;-63
2021/10/05 02:02:28;;;;;;;5.20;2.60;;;;;;;7.38;97.80;97776.72;5025253;28;20148;-63
2021/10/05 02:04:55;;;;;;;4.45;2.58;;;;;;;7.57;96.87;97791.69;5023606;28;20056;-63
2021/10/05 02:07:22;;;;;;;5.72;2.85;;;;;;;7.18;97.79;97728.66;5024384;28;20069;-64
2021/10/05 02:09:49;;;;;;;8.50;2.60;;;;;;;7.60;98.10;97802.03;5024691;28;20351;-63
2021/10/05 02:12:17;;;;;;;5.22;2.63;;;;;;;7.63;97.57;97812.41;5024331;28;20060;-63
2021/10/05 02:14:46;;;;;;;9.63;2.97;;;;;;;7.62;97.43;97805.28;5023049;28;20057;-63
2021/10/05 02:17:14;;;;;;;6.20;2.90;;;;;;;7.59;98.33;97800.44;5024253;28;20099;-63
2021/10/05 02:19:41;;;;;;;4.75;3.30;;;;;;;7.46;97.08;97862.13;5022683;28;20062;-63
2021/10/05 02:22:08;;;;;;;4.13;2.65;;;;;;;7.05;97.86;97729.69;5024730;28;20060;-64
2021/10/05 02:24:45;;;;;;;5.18;3.22;;;;;;;7.25;96.35;97755.72;5024373;28;20084;-66
2021/10/05 02:27:16;;;;;;;6.93;3.63;;;;;;;6.83;95.77;97720.91;5024201;28;20067;-63
2021/10/05 02:29:44;;;;;;;6.80;3.83;;;;;;;6.88;97.71;97724.25;5023024;28;20057;-64
2021/10/05 02:32:13;;;;;;;4.18;2.53;;;;;;;7.19;99.22;97763.34;5024211;28;20052;-64
2021/10/05 02:34:41;;;;;;;6.22;2.85;;;;;;;7.22;99.20;97772.91;5023105;28;20049;-63
2021/10/05 02:37:08;;;;;;;7.90;4.43;;;;;;;7.39;97.31;97792.94;5023029;28;20049;-63
2021/10/05 02:39:35;;;;;;;7.15;3.25;;;;;;;7.25;97.54;97788.78;5023960;28;20057;-63
2021/10/05 02:42:02;;;;;;;8.68;4.10;;;;;;;5.25;97.70;97488.50;5023642;28;20556;-65
2021/10/05 02:44:29;;;;;;;7.15;3.85;;;;;;;7.33;97.33;97793.44;5023876;28;20065;-63
2021/10/05 02:46:56;;;;;;;4.90;3.00;;;;;;;6.46;98.46;97656.41;5023840;28;20053;-63
2021/10/05 02:49:23;;;;;;;4.15;2.97;;;;;;;7.21;98.21;97791.38;5023555;28;20045;-64
2021/10/05 02:51:49;;;;;;;5.72;3.15;;;;;;;6.72;98.02;97731.44;5024018;28;20480;-63
2021/10/05 02:54:16;;;;;;;6.63;3.28;;;;;;;5.91;97.62;97578.59;5024034;28;20053;-64
2021/10/05 02:56:43;;;;;;;6.30;4.28;;;;;;;6.26;98.13;97646.09;5023932;28;20049;-64
2021/10/05 02:59:11;;;;;;;7.63;4.15;;;;;;;7.15;98.58;97792.69;5024216;28;20061;-63
2021/10/05 03:01:38;;;;;;;10.60;4.93;;;;;;;7.11;97.27;97797.25;5023832;28;20063;-63
2021/10/05 03:04:05;;;;;;;5.43;4.10;;;;;;;6.30;97.60;97674.59;5022592;28;20134;-64
2021/10/05 03:06:32;;;;;;;8.75;5.43;;;;;;;7.10;97.97;97792.88;5022454;28;20046;-65
2021/10/05 03:08:59;;;;;;;8.90;5.50;;;;;;;7.10;98.56;97803.91;5023493;28;20472;-64
2021/10/05 03:11:26;;;;;;;7.65;4.57;;;;;;;7.02;98.02;97790.97;5023098;28;20054;-64
2021/10/05 03:13:52;;;;;;;9.23;4.80;;;;;;;7.07;98.80;97799.03;5023855;28;20049;-64
2021/10/05 03:16:19;;;;;;;10.80;4.55;;;;;;;6.78;99.04;97740.34;5023460;28;20076;-64
2021/10/05 03:18:46;;;;;;;6.68;4.65;;;;;;;7.19;98.29;97790.09;5022017;28;20057;-65
2021/10/05 03:21:13;;;;;;;5.72;4.10;;;;;;;7.15;99.17;97792.69;5023630;28;20077;-64
2021/10/05 03:23:40;;;;;;;5.30;3.08;;;;;;;6.94;99.23;97769.75;5021864;28;20045;-65
2021/10/05 03:26:07;;;;;;;4.55;2.42;;;;;;;7.22;99.07;97801.25;5022208;28;20061;-63
2021/10/05 03:28:34;;;;;;;9.43;2.95;;;;;;;6.47;99.07;97691.03;5023815;28;20064;-64
2021/10/05 03:31:00;;;;;;;4.50;2.30;;;;;;;6.98;99.41;97789.19;5023358;28;20424;-64
2021/10/05 03:33:27;;;;;;;5.55;2.35;;;;;;;6.86;98.98;97765.09;5023502;28;20053;-63
2021/10/05 03:35:54;;;;;;;9.18;3.47;;;;;;;7.23;97.45;97819.41;5023590;28;20508;-63
2021/10/05 03:38:22;;;;;;;7.90;4.60;;;;;;;6.95;98.21;97796.19;5023808;28;20520;-64
2021/10/05 03:40:50;;;;;;;5.57;3.80;;;;;;;7.05;97.29;97812.34;5023662;28;20176;-63
2021/10/05 03:43:17;;;;;;;6.57;3.88;;;;;;;7.15;95.59;97806.47;5023888;28;20155;-64
2021/10/05 03:45:43;;;;;;;6.78;4.60;;;;;;;7.02;96.77;97807.47;5023415;28;20052;-64
2021/10/05 03:48:12;;;;;;;11.52;6.20;;;;;;;5.98;96.40;97645.69;5023953;28;20045;-63
2021/10/05 03:50:39;;;;;;;10.55;5.47;;;;;;;6.69;94.44;97775.34;5022358;28;20057;-63
2021/10/05 03:53:06;;;;;;;11.95;5.95;;;;;;;6.82;94.21;97821.97;5025990;28;20402;-63
2021/10/05 03:55:33;;;;;;;10.02;6.15;;;;;;;6.51;93.57;97762.75;5027577;28;20061;-64
2021/10/05 03:58:00;;;;;;;7.68;4.80;;;;;;;6.75;94.45;97813.38;5027142;28;20064;-63
2021/10/05 04:00:27;;;;;;;7.38;4.30;;;;;;;6.72;96.59;97818.75;5027279;28;20512;-63
2021/10/05 04:02:55;;;;;;;5.90;3.40;;;;;;;5.39;98.85;97621.75;5027479;28;20527;-63
2021/10/05 04:05:23;;;;;;;6.85;3.75;;;;;;;6.80;98.84;97818.72;5026996;28;20115;-64
2021/10/05 04:07:49;;;;;;;7.43;4.97;;;;;;;6.19;97.49;97706.31;5025702;28;20539;-63
2021/10/05 04:10:16;;;;;;;14.57;6.88;;;;;;;6.23;97.82;97695.47;5025808;28;20049;-62
2021/10/05 04:12:43;;;;;;;7.72;5.03;;;;;;;6.86;99.26;97825.66;5025773;28;20060;-63
2021/10/05 04:15:10;;;;;;;8.48;3.80;;;;;;;6.97;99.54;97857.22;5026902;28;20061;-62
2021/10/05 04:17:36;;;;;;;6.13;3.05;;;;;;;6.96;98.21;97825.31;5027024;28;20060;-63
2021/10/05 04:20:05;;;;;;;5.38;3.38;;;;;;;6.99;98.99;97823.84;5024718;28;20065;-64
2021/10/05 04:22:32;;;;;;;5.60;3.13;;;;;;;6.99;98.25;97823.84;5025063;28;20059;-62
2021/10/05 04:24:58;;;;;;;6.82;2.92;;;;;;;7.01;98.61;97822.41;5026546;28;20045;-63
2021/10/05 04:27:25;;;;;;;3.70;2.90;;;;;;;6.36;98.52;97739.31;5026759;28;20069;-63
2021/10/05 04:29:52;;;;;;;8.35;4.05;;;;;;;6.98;97.42;97827.75;5026906;28;20439;-63
2021/10/05 04:32:18;;;;;;;7.55;4.22;;;;;;;4.58;96.92;97438.78;5026536;28;20049;-63
2021/10/05 04:34:47;;;;;;;16.02;9.57;;;;;;;6.82;96.95;97812.88;5025220;28;20048;-63
2021/10/05 04:37:13;;;;;;;22.40;10.38;;;;;;;6.95;97.14;97834.75;5025294;28;20060;-62
2021/10/05 04:39:40;;;;;;;20.50;13.32;;;;;;;6.89;97.18;97836.03;5026266;28;20428;-63
2021/10/05 04:42:07;;;;;;;23.95;12.73;;;;;;;6.95;96.88;97840.25;5024969;28;20130;-63
2021/10/05 04:44:35;;;;;;;19.77;11.73;;;;;;;7.05;95.93;97839.09;5026345;28;20056;-63
2021/10/05 04:47:02;;;;;;;17.85;10.48;;;;;;;7.04;95.99;97832.75;5024720;28;20300;-62
2021/10/05 04:49:29;;;;;;;13.23;6.43;;;;;;;5.84;96.35;97685.47;5024546;28;20058;-63
2021/10/05 04:51:56;;;;;;;38.08;12.25;;;;;;;6.75;97.01;97810.63;5025892;28;20516;-63
2021/10/05 04:54:23;;;;;;;46.10;16.38;;;;;;;7.05;98.20;97850.91;5026184;28;20049;-64
2021/10/05 04:56:51;;;;;;;41.75;13.57;;;;;;;6.47;96.15;97704.81;5025913;28;20436;-65
2021/10/05 04:59:19;;;;;;;25.35;9.35;;;;;;;7.40;97.00;97846.91;5026139;28;20057;-64
2021/10/05 05:01:45;;;;;;;20.05;8.48;;;;;;;7.39;96.21;97833.44;5026308;28;20241;-65
2021/10/05 05:04:13;;;;;;;10.13;5.80;;;;;;;6.98;95.75;97745.94;5025808;28;20056;-65
2021/10/05 05:06:40;;;;;;;11.43;6.15;;;;;;;6.86;96.04;97699.00;5026125;28;20598;-65
2021/10/05 05:09:06;;;;;;;11.60;7.28;;;;;;;7.93;94.11;97849.09;5026069;28;20492;-65
2021/10/05 05:11:33;;;;;;;12.23;6.40;;;;;;;8.03;92.09;97845.13;5024661;28;20153;-65
2021/10/05 05:14:05;;;;;;;9.38;4.50;;;;;;;7.93;93.65;97865.63;5024236;28;20050;-65
2021/10/05 05:16:32;;;;;;;6.38;4.10;;;;;;;8.01;93.87;97850.16;5025816;28;20050;-65
2021/10/05 05:18:59;;;;;;;9.18;3.95;;;;;;;8.01;93.88;97850.16;5024221;28;20521;-65
2021/10/05 05:21:26;;;;;;;10.00;4.90;;;;;;;8.08;93.35;97844.94;5024966;28;20061;-65
2021/10/05 05:23:53;;;;;;;12.25;4.80;;;;;;;8.12;93.58;97829.31;5024153;28;20496;-65
2021/10/05 05:26:19;;;;;;;7.40;4.30;;;;;;;8.38;92.48;97843.75;5025174;28;20064;-64
2021/10/05 05:28:46;;;;;;;7.45;3.90;;;;;;;8.27;91.83;97803.91;5025614;28;20092;-65
2021/10/05 05:31:14;;;;;;;10.27;5.90;;;;;;;8.22;91.32;97773.75;5025595;28;20061;-63
2021/10/05 05:33:41;;;;;;;6.60;3.10;;;;;;;8.68;91.75;97848.06;5023968;28;20041;-64
2021/10/05 05:36:08;;;;;;;4.57;2.97;;;;;;;8.65;91.60;97821.13;5025841;28;20591;-64
2021/10/05 05:38:34;;;;;;;6.70;3.53;;;;;;;8.44;92.62;97792.75;5025588;28;20049;-64
2021/10/05 05:41:01;;;;;;;4.05;2.90;;;;;;;8.95;92.19;97853.81;5025195;28;20049;-64
2021/10/05 05:43:28;;;;;;;3.42;2.13;;;;;;;8.83;91.59;97803.25;5023731;28;20045;-65
2021/10/05 05:45:55;;;;;;;5.45;3.38;;;;;;;6.31;89.87;97390.09;5017493;28;20053;-66
2021/10/05 05:48:22;;;;;;;7.30;3.65;;;;;;;8.28;90.31;97697.91;5024437;28;20112;-66
2021/10/05 05:50:48;;;;;;;8.05;5.43;;;;;;;9.35;89.01;97807.06;5023801;28;20049;-68
2021/10/05 05:53:15;;;;;;;7.45;4.65;;;;;;;9.89;87.28;97863.81;5023216;28;20153;-66
2021/10/05 05:55:42;;;;;;;8.85;5.13;;;;;;;9.77;85.91;97805.69;5022544;28;20428;-67
2021/10/05 05:58:13;;;;;;;11.60;5.57;;;;;;;9.93;85.02;97812.13;5024676;28;20051;-69
2021/10/05 06:00:41;;;;;;;8.63;5.60;;;;;;;9.33;85.33;97704.28;5023997;28;20049;-70
2021/10/05 06:03:08;;;;;;;11.48;7.05;;;;;;;10.13;83.85;97797.38;5023445;28;20049;-70
2021/10/05 06:05:35;;;;;;;11.45;6.35;;;;;;;10.63;83.58;97858.66;5024895;28;20493;-66
2021/10/05 06:08:03;;;;;;;14.07;6.65;;;;;;;9.87;81.99;97690.94;5024848;28;20512;-67
2021/10/05 06:10:30;;;;;;;10.18;5.97;;;;;;;11.08;81.12;97860.34;5024319;28;20061;-65
2021/10/05 06:12:57;;;;;;;7.85;5.18;;;;;;;10.63;82.53;97828.19;5024615;28;20056;-65
2021/10/05 06:15:25;;;;;;;11.23;6.10;;;;;;;10.51;83.45;97789.41;5022958;28;20061;-70
2021/10/05 06:17:52;;;;;;;10.02;6.20;;;;;;;10.34;82.88;97737.09;5024736;28;20049;-70
2021/10/05 06:20:23;;;;;;;9.90;5.28;;;;;;;10.55;82.78;97757.09;5022615;28;20075;-68
2021/10/05 06:22:50;;;;;;;9.88;5.38;;;;;;;11.45;82.63;97867.28;5013291;28;20256;-69
2021/10/05 06:25:22;;;;;;;12.52;5.80;;;;;;;11.43;82.83;97864.09;5022905;28;20546;-71
2021/10/05 06:27:50;;;;;;;7.75;4.85;;;;;;;11.56;82.73;97868.38;5023945;28;20684;-64
2021/10/05 06:30:17;;;;;;;7.88;5.03;;;;;;;11.78;82.21;97870.56;5019485;28;20050;-67
2021/10/05 06:32:55;;;;;;;8.98;4.60;;;;;;;12.01;81.81;97874.34;5024623;28;20049;-70
2021/10/05 06:35:25;;;;;;;8.75;4.43;;;;;;;11.18;81.22;97712.84;5022449;28;20053;-66
2021/10/05 06:37:54;;;;;;;9.23;4.65;;;;;;;12.08;79.91;97818.97;5023680;28;20524;-65
2021/10/05 06:40:27;;;;;;;8.02;3.72;;;;;;;12.63;78.99;97856.75;5024392;28;20494;-72
2021/10/05 06:42:54;;;;;;;5.95;3.42;;;;;;;12.93;77.83;97878.03;5022574;28;20059;-65
2021/10/05 06:45:21;;;;;;;6.70;4.15;;;;;;;12.78;77.50;97837.22;5022678;28;20057;-66
2021/10/05 06:47:48;;;;;;;6.93;3.40;;;;;;;12.25;76.83;97720.56;5023339;28;20050;-70
2021/10/05 06:50:16;;;;;;;6.43;3.30;;;;;;;13.25;76.95;97873.97;5023042;28;20435;-68
2021/10/05 06:52:44;;;;;;;5.53;3.33;;;;;;;13.34;77.24;97877.34;5023572;28;20049;-72
2021/10/05 06:55:11;;;;;;;5.97;3.05;;;;;;;12.83;77.04;97789.66;5021361;28;20077;-65
2021/10/05 06:57:38;;;;;;;6.38;2.95;;;;;;;13.54;76.00;97878.94;5022165;28;20268;-68
2021/10/05 07:00:15;;;;;;;5.45;3.53;;;;;;;13.81;76.13;97890.13;5022110;28;20091;-72
2021/10/05 07:02:49;;;;;;;7.32;3.40;;;;;;;12.92;74.92;97745.75;5013458;28;20577;-69
2021/10/05 07:05:19;;;;;;;7.90;4.13;;;;;;;13.39;73.59;97740.66;5021574;28;20530;-65
2021/10/05 07:07:48;;;;;;;6.82;4.68;;;;;;;13.85;74.37;97818.63;5021461;28;20048;-67
2021/10/05 07:10:17;;;;;;;8.60;4.78;;;;;;;14.33;74.12;97884.69;5022009;28;20057;-69
2021/10/05 07:12:44;;;;;;;7.60;4.47;;;;;;;14.56;73.60;97877.88;5023040;28;20061;-69
2021/10/05 07:15:12;;;;;;;7.95;3.65;;;;;;;14.56;74.22;97872.31;5020655;28;20053;-66
2021/10/05 07:17:39;;;;;;;7.93;4.50;;;;;;;12.38;73.71;97550.56;5017328;28;20501;-67
2021/10/05 07:20:07;;;;;;;15.93;4.32;;;;;;;14.78;73.00;97870.63;5020164;28;20272;-64
2021/10/05 07:22:34;;;;;;;6.00;3.65;;;;;;;13.13;74.10;97665.50;5022602;28;20492;-61
2021/10/05 07:25:01;;;;;;;6.03;4.13;;;;;;;12.98;75.87;97696.16;5022436;28;20049;-64
2021/10/05 07:27:31;;;;;;;4.75;3.35;;;;;;;11.93;76.23;97528.28;5019882;28;20050;-65
2021/10/05 07:29:58;;;;;;;5.05;3.78;;;;;;;14.10;77.49;97869.97;5021171;28;20052;-68
2021/10/05 07:32:25;;;;;;;4.25;2.97;;;;;;;14.13;77.03;97830.22;5019806;28;20518;-64
2021/10/05 07:34:51;;;;;;;5.38;3.30;;;;;;;14.60;75.67;97883.53;5023300;28;20551;-65
2021/10/05 07:37:18;;;;;;;13.50;4.18;;;;;;;14.47;76.21;97879.34;5023076;28;20061;-69
2021/10/05 07:39:46;;;;;;;8.35;3.72;;;;;;;14.39;75.01;97810.72;5022450;28;20060;-69
2021/10/05 07:42:13;;;;;;;8.60;4.05;;;;;;;14.52;76.00;97870.66;5024305;28;20057;-63
2021/10/05 07:44:40;;;;;;;8.43;4.25;;;;;;;14.58;75.45;97874.72;5025387;28;20050;-64
2021/10/05 07:47:07;;;;;;;11.40;5.28;;;;;;;12.79;76.45;97627.53;5025861;28;20049;-71
2021/10/05 07:49:36;;;;;;;8.07;3.75;;;;;;;14.72;75.19;97880.50;5021981;28;20061;-68
2021/10/05 07:52:03;;;;;;;9.35;4.00;;;;;;;14.88;74.70;97856.03;5021400;28;20088;-69
2021/10/05 07:54:29;;;;;;;7.97;3.83;;;;;;;14.21;75.93;97795.69;5022446;28;20053;-68
2021/10/05 07:56:56;;;;;;;7.20;4.35;;;;;;;15.17;74.06;97838.47;5023147;28;20119;-67
2021/10/05 07:59:23;;;;;;;14.00;5.20;;;;;;;15.73;72.82;97875.41;5022076;28;20064;-70
2021/10/05 08:01:51;;;;;;;10.20;3.50;;;;;;;14.95;72.55;97783.59;5022485;28;20148;-69
2021/10/05 08:04:18;;;;;;;6.72;3.30;;;;;;;15.00;74.95;97908.81;5018128;28;20241;-65
2021/10/05 08:06:46;;;;;;;5.95;3.45;;;;;;;14.79;74.67;97852.72;5022609;28;20049;-72
2021/10/05 08:09:15;;;;;;;8.02;3.83;;;;;;;14.73;73.53;97802.03;5022250;28;20041;-67
2021/10/05 08:11:42;;;;;;;9.00;3.38;;;;;;;15.47;72.83;97838.41;5018495;28;20429;-72
2021/10/05 08:14:09;;;;;;;4.50;2.83;;;;;;;15.27;70.27;97784.72;5022424;28;20417;-65
2021/10/05 08:16:36;;;;;;;8.05;3.53;;;;;;;15.04;70.93;97786.88;5021499;28;20487;-78
2021/10/05 08:19:03;;;;;;;4.72;3.30;;;;;;;14.79;70.54;97763.47;5022016;28;20090;-71
2021/10/05 08:21:31;;;;;;;5.35;2.65;;;;;;;15.31;69.34;97793.94;5023116;28;20065;-71
2021/10/05 08:23:57;;;;;;;5.13;2.78;;;;;;;15.09;67.79;97800.47;5023266;28;20049;-74
2021/10/05 08:26:25;;;;;;;5.03;3.80;;;;;;;15.91;67.97;97873.59;5021061;28;20050;-66
2021/10/05 08:28:51;;;;;;;4.85;2.47;;;;;;;14.74;64.08;97666.19;5021713;28;20050;-70
2021/10/05 08:31:19;;;;;;;3.28;2.35;;;;;;;15.79;64.87;97871.06;5018981;28;20880;-66
2021/10/05 08:33:47;;;;;;;6.38;3.42;;;;;;;15.28;64.77;97747.25;5019475;28;20132;-70
2021/10/05 08:36:16;;;;;;;4.28;3.15;;;;;;;15.70;64.99;97830.66;5021557;28;20084;-70
2021/10/05 08:38:43;;;;;;;7.05;3.03;;;;;;;15.36;65.64;97748.13;5023248;28;20539;-66
2021/10/05 08:41:10;;;;;;;8.27;2.50;;;;;;;16.11;64.24;97863.78;5021962;28;20056;-69
2021/10/05 08:43:36;;;;;;;4.20;2.65;;;;;;;15.17;64.88;97768.69;5022532;28;20064;-71
2021/10/05 08:46:04;;;;;;;3.60;2.53;;;;;;;15.29;67.39;97745.25;5025126;28;20059;-70
2021/10/05 08:48:33;;;;;;;8.38;3.80;;;;;;;16.55;65.31;97875.75;5023650;28;20495;-66
2021/10/05 08:51:01;;;;;;;3.30;2.58;;;;;;;16.55;64.06;97828.19;5025059;28;20215;-73
2021/10/05 08:53:30;;;;;;;6.10;4.05;;;;;;;16.96;64.19;97864.41;5025762;28;20435;-68
2021/10/05 08:55:58;;;;;;;3.22;2.60;;;;;;;16.80;62.56;97805.16;5003029;28;20092;-67
2021/10/05 08:58:25;;;;;;;5.60;3.15;;;;;;;16.80;62.14;97768.75;5025099;28;20526;-68
2021/10/05 09:00:53;;;;;;;5.47;2.90;;;;;;;16.67;61.67;97722.75;5023193;28;20057;-68
2021/10/05 09:03:22;;;;;;;10.60;3.15;;;;;;;17.40;60.35;97856.59;5024456;28;20060;-69
2021/10/05 09:05:50;;;;;;;4.90;2.47;;;;;;;17.01;60.67;97810.84;4855293;28;5001029;-64
2021/10/05 09:08:27;;;;;;;4.40;2.10;;;;;;;17.28;59.75;97809.31;5026075;28;20524;-67
2021/10/05 09:11:01;;;;;;;5.05;3.22;;;;;;;17.94;59.92;97871.16;5023740;28;20436;-68
2021/10/05 09:13:32;;;;;;;5.85;3.10;;;;;;;18.09;56.87;97852.34;5024174;28;20104;-71
2021/10/05 09:15:59;;;;;;;4.60;2.50;;;;;;;17.09;56.91;97711.66;5024279;28;20049;-70
2021/10/05 09:18:26;;;;;;;5.13;3.25;;;;;;;17.60;59.07;97860.69;5024009;28;20057;-66
2021/10/05 09:20:53;;;;;;;6.15;4.43;;;;;;;18.06;57.69;97869.97;5023796;28;20045;-69
2021/10/05 09:23:20;;;;;;;3.10;2.40;;;;;;;17.38;58.04;97859.78;5024383;28;20485;-71
2021/10/05 09:25:52;;;;;;;5.90;3.58;;;;;;;17.44;58.33;97863.00;5024800;28;20053;-67
2021/10/05 09:28:30;;;;;;;6.78;2.50;;;;;;;17.55;57.67;97768.59;5025387;28;20080;-69
2021/10/05 09:31:05;;;;;;;3.72;2.85;;;;;;;18.04;56.30;97873.19;5024237;28;20132;-67
2021/10/05 09:33:33;;;;;;;5.72;2.97;;;;;;;17.43;57.71;97836.19;5025414;28;20488;-74
2021/10/05 09:36:01;;;;;;;5.53;3.53;;;;;;;17.84;58.43;97823.50;5023852;28;20054;-72
2021/10/05 09:38:30;;;;;;;3.63;2.80;;;;;;;18.13;54.49;97861.53;5024233;28;20133;-71
2021/10/05 09:41:05;;;;;;;5.40;1.90;;;;;;;18.42;53.23;97857.59;5023712;28;20063;-73
2021/10/05 09:43:33;;;;;;;4.18;2.17;;;;;;;18.30;54.92;97838.34;5025539;28;20062;-74
2021/10/05 09:46:14;;;;;;;6.30;2.30;;;;;;;16.31;55.72;97700.16;5025031;28;20432;-71
2021/10/05 09:48:42;;;;;;;6.40;3.10;;;;;;;18.02;55.44;97894.38;5023690;28;20588;-67
2021/10/05 09:51:22;;;;;;;4.20;2.33;;;;;;;17.99;54.49;97861.53;5023858;28;20497;-68
2021/10/05 09:53:53;;;;;;;8.45;2.80;;;;;;;17.73;54.42;97864.72;5021704;28;20051;-70
2021/10/05 09:56:22;;;;;;;4.68;2.50;;;;;;;18.11;54.80;97880.81;5023095;28;20054;-69
2021/10/05 09:58:52;;;;;;;6.85;2.92;;;;;;;18.10;53.60;97795.06;5024388;28;20054;-69
2021/10/05 10:01:21;;;;;;;4.30;2.70;;;;;;;18.26;55.58;97865.56;5024692;28;20563;-68
2021/10/05 10:03:50;;;;;;;3.47;2.72;;;;;;;18.54;53.35;97848.75;5022780;28;20045;-70
2021/10/05 10:06:18;;;;;;;4.18;2.47;;;;;;;18.88;53.16;97863.94;5023237;28;20433;-70
2021/10/05 10:08:46;;;;;;;7.57;2.65;;;;;;;18.90;52.46;97857.91;5023255;28;20093;-70
2021/10/05 10:11:14;;;;;;;16.17;5.85;;;;;;;18.81;51.73;97807.78;5024658;28;20065;-71
2021/10/05 10:13:48;;;;;;;6.10;2.40;;;;;;;18.26;52.51;97744.19;5023511;28;20048;-71
2021/10/05 10:16:16;;;;;;;7.60;5.10;;;;;;;18.56;53.18;97851.94;5024676;28;20057;-68
2021/10/05 10:18:58;;;;;;;5.70;3.60;;;;;;;18.40;52.89;97769.41;5024602;28;20062;-67
2021/10/05 10:21:39;;;;;;;4.15;3.17;;;;;;;17.68;51.35;97643.72;5022506;28;20053;-69
2021/10/05 10:24:11;;;;;;;2.80;2.40;;;;;;;18.84;52.55;97863.13;5022301;28;20516;-67
2021/10/05 10:26:43;;;;;;;4.03;2.75;;;;;;;16.30;53.68;97519.63;5023009;28;20125;-70
2021/10/05 10:29:30;;;;;;;6.47;3.45;;;;;;;17.97;53.52;97735.00;5023783;28;20053;-70
2021/10/05 10:32:08;;;;;;;5.38;3.05;;;;;;;19.02;52.50;97849.84;5022457;28;20051;-72
2021/10/05 10:34:36;;;;;;;3.33;3.00;;;;;;;17.74;53.22;97681.34;5023324;28;20049;-69
2021/10/05 10:37:17;;;;;;;3.25;2.60;;;;;;;18.99;52.22;97852.66;5021282;28;20049;-70
2021/10/05 10:39:46;;;;;;;5.55;3.05;;;;;;;18.67;52.54;97807.81;5014994;28;20803;-66
2021/10/05 10:42:30;;;;;;;4.32;2.60;;;;;;;18.28;51.34;97714.50;5024337;28;20063;-72
2021/10/05 10:44:57;;;;;;;6.57;2.78;;;;;;;18.62;52.27;97805.44;5023703;28;20045;-75
2021/10/05 10:47:24;;;;;;;3.65;2.50;;;;;;;19.32;50.37;97827.69;5023668;28;20107;-74
2021/10/05 10:50:03;;;;;;;3.55;2.72;;;;;;;18.43;51.77;97786.22;5021797;28;20057;-73
2021/10/05 10:52:32;;;;;;;4.32;2.70;;;;;;;18.31;52.00;97750.16;5024098;28;20061;-70
2021/10/05 10:55:00;;;;;;;5.78;3.38;;;;;;;18.78;52.04;97788.16;5022735;28;20536;-73
2021/10/05 10:57:39;;;;;;;6.65;3.28;;;;;;;19.08;50.60;97836.97;5024352;28;20057;-68
2021/10/05 11:00:19;;;;;;;5.75;3.53;;;;;;;19.12;51.36;97834.97;5022756;28;20063;-72
2021/10/05 11:02:52;;;;;;;7.18;3.08;;;;;;;18.61;50.44;97659.91;5021823;28;20053;-68
2021/10/05 11:05:22;;;;;;;7.25;2.90;;;;;;;20.15;49.67;97818.34;5020802;28;20064;-73
2021/10/05 11:07:55;;;;;;;5.68;3.05;;;;;;;20.27;47.74;97770.81;5022720;28;20435;-71
2021/10/05 11:10:30;;;;;;;3.72;3.22;;;;;;;20.65;47.89;97780.06;5021205;28;20049;-70
2021/10/05 11:13:00;;;;;;;7.43;3.65;;;;;;;20.75;46.11;97810.91;5023053;28;20410;-70
2021/10/05 11:15:32;;;;;;;3.30;3.00;;;;;;;20.93;45.96;97813.53;5023414;28;20576;-70
2021/10/05 11:18:04;;;;;;;4.60;3.00;;;;;;;20.01;47.19;97804.38;5022654;28;20080;-73
2021/10/05 11:20:31;;;;;;;6.03;2.65;;;;;;;19.51;48.56;97806.69;5020742;28;20558;-69
2021/10/05 11:23:01;;;;;;;3.03;2.72;;;;;;;18.14;50.03;97669.66;5008953;28;20056;-75
2021/10/05 11:25:28;;;;;;;5.22;2.80;;;;;;;15.41;48.31;97226.56;5020454;28;20044;-68
2021/10/05 11:27:55;;;;;;;6.30;3.00;;;;;;;19.01;49.04;97648.06;5023230;28;20064;-73
2021/10/05 11:30:23;;;;;;;8.70;3.28;;;;;;;18.45;49.89;97570.59;5021771;28;20103;-66
2021/10/05 11:32:50;;;;;;;6.28;2.83;;;;;;;19.97;49.36;97764.19;5021670;28;20091;-68
2021/10/05 11:35:17;;;;;;;6.88;3.72;;;;;;;18.04;48.73;97444.19;5022747;28;20136;-68
2021/10/05 11:37:44;;;;;;;4.63;3.25;;;;;;;19.51;48.62;97677.41;5023601;28;20042;-66
2021/10/05 11:40:11;;;;;;;5.05;3.40;;;;;;;20.45;48.88;97799.59;5024036;28;20140;-73
2021/10/05 11:42:38;;;;;;;6.18;2.95;;;;;;;19.99;48.77;97730.84;5030383;28;20052;-65